PWSweather.com
Personal Weather Stations
Station Observations
FAUSKE
Nordland, Norway, FauskeNO 8200

Nordland, NorwayFauskeNO 8200

Lat: 67.2607586, Lon: 15.4114204

Elevation: 40

Station Type: Davis Vantage PRO2

http://www.bjornli.net/weather.html

Latest ConditionsUpdated 8:40:00 AM GMT+01:01 Thursday, Dec 12, 2019
Currently Today's Max Today's Min Today's Average
Temperature 36.9°F2.7°C 40.5°F4.7°C 36.4°F2.4°C 37.7°F3.2°C
Dew Point 27.0°F-2.8°C 29.9°F-1.2°C 26.4°F-3.1°C 27.7°F-2.4°C
Winds 19.0 mph SE30.6 kmh SE 22.0 mph -35.4 kmh - - 13.8 mph 22.2 kmh
Wind Gusts 22.0 mph35.4 kmh 29.0 mph46.7 kmh - -
Humidity 67% 72% 62% 67%
Pressure 29.08 in984.8 mb 29.10 in985.4 mb 29.07 in984.4 mb -
Hour Temp Dew Point Humidity Winds Wind Gusts Pressure Precip Precip Rate Daily Precip Total
08:40 AM 36.9°F2.7°C 27.0°F-2.8°C 67% 19.0 mph SE30.6 kmh SE 22.0 mph35.4 kmh 29.08 in984.8 mb 0.00 in0.0 mm 0.00 in0.0 mm 0.00 in0.0 mm
08:30 AM 36.8°F2.7°C 26.9°F-2.8°C 67% 18.0 mph SE29.0 kmh SE 18.0 mph29.0 kmh 29.08 in984.8 mb 0.00 in0.0 mm 0.00 in0.0 mm 0.00 in0.0 mm
08:10 AM 36.6°F2.6°C 28.4°F-2.0°C 72% 12.0 mph SE19.3 kmh SE 21.0 mph33.8 kmh 29.08 in984.8 mb 0.00 in0.0 mm 0.00 in0.0 mm 0.00 in0.0 mm
08:00 AM 36.7°F2.6°C 27.2°F-2.7°C 68% 20.0 mph SE32.2 kmh SE 20.0 mph32.2 kmh 29.08 in984.8 mb 0.00 in0.0 mm 0.00 in0.0 mm 0.00 in0.0 mm
07:40 AM 37.0°F2.8°C 27.1°F-2.7°C 67% 21.0 mph SE33.8 kmh SE 25.0 mph40.2 kmh 29.08 in984.8 mb 0.00 in0.0 mm 0.00 in0.0 mm 0.00 in0.0 mm
07:30 AM 36.9°F2.7°C 27.0°F-2.8°C 67% 10.0 mph SE16.1 kmh SE 13.0 mph20.9 kmh 29.08 in984.8 mb 0.00 in0.0 mm 0.00 in0.0 mm 0.00 in0.0 mm
07:10 AM 36.7°F2.6°C 26.8°F-2.9°C 67% 22.0 mph SE35.4 kmh SE 25.0 mph40.2 kmh 29.08 in984.8 mb 0.00 in0.0 mm 0.00 in0.0 mm 0.00 in0.0 mm
07:00 AM 36.7°F2.6°C 26.8°F-2.9°C 67% 20.0 mph SE32.2 kmh SE 20.0 mph32.2 kmh 29.08 in984.8 mb 0.00 in0.0 mm 0.00 in0.0 mm 0.00 in0.0 mm
06:40 AM 36.6°F2.6°C 28.4°F-2.0°C 72% 11.0 mph SE17.7 kmh SE 23.0 mph37.0 kmh 29.08 in984.8 mb 0.00 in0.0 mm 0.00 in0.0 mm 0.00 in0.0 mm
06:30 AM 36.7°F2.6°C 27.2°F-2.7°C 68% 15.0 mph SE24.1 kmh SE 15.0 mph24.1 kmh 29.08 in984.8 mb 0.00 in0.0 mm 0.00 in0.0 mm 0.00 in0.0 mm
06:10 AM 36.7°F2.6°C 26.4°F-3.1°C 66% 9.0 mph SSE14.5 kmh SSE 20.0 mph32.2 kmh 29.08 in984.8 mb 0.00 in0.0 mm 0.00 in0.0 mm 0.00 in0.0 mm
06:00 AM 36.7°F2.6°C 27.2°F-2.7°C 68% 10.0 mph SE16.1 kmh SE 16.0 mph25.7 kmh 29.08 in984.8 mb 0.00 in0.0 mm 0.00 in0.0 mm 0.00 in0.0 mm
05:40 AM 37.1°F2.8°C 27.2°F-2.7°C 67% 18.0 mph SE29.0 kmh SE 23.0 mph37.0 kmh 29.07 in984.4 mb 0.00 in0.0 mm 0.00 in0.0 mm 0.00 in0.0 mm
05:30 AM 36.8°F2.7°C 26.9°F-2.8°C 67% 14.0 mph SE22.5 kmh SE 15.0 mph24.1 kmh 29.08 in984.8 mb 0.00 in0.0 mm 0.00 in0.0 mm 0.00 in0.0 mm
05:10 AM 36.9°F2.7°C 27.3°F-2.6°C 68% 13.0 mph SE20.9 kmh SE 21.0 mph33.8 kmh 29.08 in984.8 mb 0.00 in0.0 mm 0.00 in0.0 mm 0.00 in0.0 mm
05:00 AM 37.1°F2.8°C 27.2°F-2.7°C 67% 15.0 mph SE24.1 kmh SE 20.0 mph32.2 kmh 29.08 in984.8 mb 0.00 in0.0 mm 0.00 in0.0 mm 0.00 in0.0 mm
04:40 AM 37.0°F2.8°C 27.4°F-2.6°C 68% 16.0 mph SE25.7 kmh SE 24.0 mph38.6 kmh 29.07 in984.4 mb 0.00 in0.0 mm 0.00 in0.0 mm 0.00 in0.0 mm
04:30 AM 36.8°F2.7°C 27.6°F-2.4°C 69% 15.0 mph SSE24.1 kmh SSE 17.0 mph27.4 kmh 29.07 in984.4 mb 0.00 in0.0 mm 0.00 in0.0 mm 0.00 in0.0 mm
04:09 AM 36.4°F2.4°C 27.2°F-2.7°C 69% 22.0 mph SE35.4 kmh SE 26.0 mph41.8 kmh 29.08 in984.8 mb 0.00 in0.0 mm 0.00 in0.0 mm 0.00 in0.0 mm
04:00 AM 36.5°F2.5°C 27.3°F-2.6°C 69% 14.0 mph SE22.5 kmh SE 14.0 mph22.5 kmh 29.08 in984.8 mb 0.00 in0.0 mm 0.00 in0.0 mm 0.00 in0.0 mm
03:40 AM 36.9°F2.7°C 27.0°F-2.8°C 67% 11.0 mph SE17.7 kmh SE 20.0 mph32.2 kmh 29.08 in984.8 mb 0.00 in0.0 mm 0.00 in0.0 mm 0.00 in0.0 mm
03:30 AM 36.8°F2.7°C 27.2°F-2.7°C 68% 15.0 mph SE24.1 kmh SE 15.0 mph24.1 kmh 29.09 in985.1 mb 0.00 in0.0 mm 0.00 in0.0 mm 0.00 in0.0 mm
03:10 AM 36.8°F2.7°C 27.6°F-2.4°C 69% 6.0 mph SE9.7 kmh SE 16.0 mph25.7 kmh 29.10 in985.4 mb 0.00 in0.0 mm 0.00 in0.0 mm 0.00 in0.0 mm
03:00 AM 36.8°F2.7°C 27.6°F-2.4°C 69% 15.0 mph SE24.1 kmh SE 15.0 mph24.1 kmh 29.09 in985.1 mb 0.00 in0.0 mm 0.00 in0.0 mm 0.00 in0.0 mm
02:40 AM 37.1°F2.8°C 27.9°F-2.3°C 69% 20.0 mph SE32.2 kmh SE 29.0 mph46.7 kmh 29.09 in985.1 mb 0.00 in0.0 mm 0.00 in0.0 mm 0.00 in0.0 mm
02:30 AM 37.5°F3.1°C 27.9°F-2.3°C 68% 11.0 mph SE17.7 kmh SE 17.0 mph27.4 kmh 29.09 in985.1 mb 0.00 in0.0 mm 0.00 in0.0 mm 0.00 in0.0 mm
02:10 AM 38.4°F3.6°C 28.1°F-2.2°C 66% 17.0 mph SE27.4 kmh SE 24.0 mph38.6 kmh 29.09 in985.1 mb 0.00 in0.0 mm 0.00 in0.0 mm 0.00 in0.0 mm
02:00 AM 38.9°F3.8°C 27.8°F-2.3°C 64% 13.0 mph SE20.9 kmh SE 16.0 mph25.7 kmh 29.09 in985.1 mb 0.00 in0.0 mm 0.00 in0.0 mm 0.00 in0.0 mm
01:40 AM 39.4°F4.1°C 28.3°F-2.1°C 64% 13.0 mph SE20.9 kmh SE 25.0 mph40.2 kmh 29.08 in984.8 mb 0.00 in0.0 mm 0.00 in0.0 mm 0.00 in0.0 mm
01:30 AM 39.6°F4.2°C 28.4°F-2.0°C 64% 11.0 mph SE17.7 kmh SE 18.0 mph29.0 kmh 29.08 in984.8 mb 0.00 in0.0 mm 0.00 in0.0 mm 0.00 in0.0 mm
01:09 AM 39.9°F4.4°C 28.3°F-2.1°C 63% 9.0 mph SE14.5 kmh SE 15.0 mph24.1 kmh 29.08 in984.8 mb 0.00 in0.0 mm 0.00 in0.0 mm 0.00 in0.0 mm
01:00 AM 40.1°F4.5°C 28.1°F-2.2°C 62% 8.0 mph SE12.9 kmh SE 15.0 mph24.1 kmh 29.08 in984.8 mb 0.00 in0.0 mm 0.00 in0.0 mm 0.00 in0.0 mm
12:40 AM 40.5°F4.7°C 28.9°F-1.7°C 63% 10.0 mph SE16.1 kmh SE 14.0 mph22.5 kmh 29.08 in984.8 mb 0.00 in0.0 mm 0.00 in0.0 mm 0.00 in0.0 mm
12:30 AM 40.5°F4.7°C 28.9°F-1.7°C 63% 3.0 mph SE4.8 kmh SE 10.0 mph16.1 kmh 29.08 in984.8 mb 0.00 in0.0 mm 0.00 in0.0 mm 0.00 in0.0 mm
12:10 AM 40.5°F4.7°C 29.7°F-1.3°C 65% 11.0 mph SE17.7 kmh SE 18.0 mph29.0 kmh 29.08 in984.8 mb 0.00 in0.0 mm 0.00 in0.0 mm 0.00 in0.0 mm
12:00 AM 40.3°F4.6°C 29.9°F-1.2°C 66% 11.0 mph ESE17.7 kmh ESE 12.0 mph19.3 kmh 29.08 in984.8 mb 0.00 in0.0 mm 0.00 in0.0 mm 0.00 in0.0 mm